Hauptseite
METAR-TAF:

METAR-TAF

Flughäfen :

Flughafen Udon Thani

Udon Thani, Thailand

Breite: 17-23N, Länge: 102-48E, Höhe: 177 m

Beobachtung

Neuester Wetterbericht von vor 1 Stunde und 2 Minuten, um 03:00 UTC
Wind 3 kt aus Südost, variierte zwischen Nordost und Süd
Temperatur 31°C
Luftfeuchtigkeit 63%
Luftdruck 1014 hPa
Sichtweite 10 km oder mehr
keine Wolken unter 1500 m und keine Kumulonimbus oder Gewitterwolken

METAR: VTUD 160300Z 14003KT 050V180 CAVOK 31/23 Q1014 NOSIG

Zeit: 11:02 (04:02 UTC)

Prognose

Neuester Wetterbericht von vor 5 Stunden und 2 Minuten, um 23:00 UTC
Gültige Prognose vom 16 um 00 UTC bis 16 um 24 UTC
Wind kt aus Nord
Sichtweite: 8000 m
Übergehend zu
vom 16 um 01 UTC bis 16 um 03 UTC
Wind 2 kt aus unterschiedlichen Richtungen
Sichtweite 10 km oder mehr
Aufgelockert bewölkt in der Höhe von 3500 ft

TAF: VTUD 152300Z 1600/1624 00000KT 8000 NSC BECMG 1601/1603 VRB02KT 9999 SCT035

Wetterbeobachtungen und Prognosen von mehr als 4000 Flughäfen (METAR und TAF Bericht).

Die verfügbaren Stationen werden durch gelbe und rote Markierungen auf der Karte dargestellt.

Führen Sie die Maus auf sie, um den Namen der Station zu sehen.

Darauf klicken, um die Beobachtung von Wetterbeobachtungen und Prognosen zu sehen.

Um die Karte zu ändern : klicken Sie auf den grünen Tasten mit einem schwarzen Kreuz Zum Vergrößern, auf den grünen Button mit einem Gedankenstrich zu verkleinern, oder auf die grünen Pfeile für benachbarte Karten.


METAR-TAF: